< < Back
Terminal Aerodrome Forecast


Current Version              Previous Versions:   1  2  3  4  5  6  7  8  9  

Terminal Aerodrome Forecast

518
FTUS42 KCHS 241721
TAFSAV
TAF
KSAV 241721Z 2418/2518 24010KT P6SM FEW060 SCT250
     FM242300 20007KT P6SM SCT080 SCT250
     FM251200 25007KT P6SM FEW060 SCT250=

Latest METAR

742
SAUS80 KWBC 251000
MTRSAV
METAR KSAV 250953Z 21004KT 10SM FEW030 SCT120 BKN250 26/23 A3003 RMK AO2
SLP167 FIRST AUGMENTED OBSERVATION T02560233


USA.gov is the U.S. government's official web portal to all federal, state and local government web resources and services.